createdAt,value
2022-11-07T00:00:39.827Z,0.00
2022-11-07T00:01:40.072Z,0.00
2022-11-07T00:02:40.342Z,0.00
2022-11-07T00:03:40.458Z,0.00
2022-11-07T00:04:40.660Z,0.00
2022-11-07T00:05:40.891Z,0.00
2022-11-07T00:06:41.092Z,0.00
2022-11-07T00:07:41.292Z,0.00
2022-11-07T00:08:42.458Z,0.00
2022-11-07T00:09:41.663Z,0.00
2022-11-07T00:10:41.885Z,0.00
2022-11-07T00:11:42.105Z,0.00
2022-11-07T00:12:42.315Z,0.00
2022-11-07T00:13:43.480Z,0.00
2022-11-07T00:14:42.692Z,0.00
2022-11-07T00:15:42.913Z,0.00
2022-11-07T00:16:43.132Z,0.00
2022-11-07T00:17:43.335Z,0.00
2022-11-07T00:18:43.557Z,0.00
2022-11-07T00:19:43.769Z,0.00
2022-11-07T00:20:43.997Z,0.00
2022-11-07T00:21:44.199Z,0.00
2022-11-07T00:22:44.402Z,0.00
2022-11-07T00:23:44.616Z,0.00
2022-11-07T00:24:44.822Z,0.00
2022-11-07T00:25:45.068Z,0.00
2022-11-07T00:26:49.357Z,0.00
2022-11-07T00:27:45.502Z,0.00
2022-11-07T00:28:49.631Z,0.00
2022-11-07T00:29:45.944Z,0.00
2022-11-07T00:30:46.182Z,0.00
2022-11-07T00:31:46.398Z,0.00
2022-11-07T00:32:46.618Z,0.00
2022-11-07T00:33:46.835Z,0.00
2022-11-07T00:34:47.049Z,0.00
2022-11-07T00:35:47.612Z,0.00
2022-11-07T00:36:47.486Z,0.00
2022-11-07T00:37:47.682Z,0.00
2022-11-07T00:38:47.883Z,0.00
2022-11-07T00:39:48.095Z,0.00
2022-11-07T00:40:48.315Z,0.00
2022-11-07T00:41:48.521Z,0.00
2022-11-07T00:42:48.731Z,0.00
2022-11-07T00:43:48.933Z,0.00
2022-11-07T00:44:49.142Z,0.00
2022-11-07T00:45:49.373Z,0.00
2022-11-07T00:46:49.572Z,0.00
2022-11-07T00:47:49.795Z,0.00
2022-11-07T00:48:50.001Z,0.00
2022-11-07T00:49:50.221Z,0.00
2022-11-07T00:50:50.436Z,0.00
2022-11-07T00:51:50.681Z,0.00
2022-11-07T00:52:50.880Z,0.00
2022-11-07T00:53:51.104Z,0.00
2022-11-07T00:54:51.306Z,0.00
2022-11-07T00:55:51.538Z,0.00
2022-11-07T00:56:51.740Z,0.00
2022-11-07T00:57:51.948Z,0.00
2022-11-07T00:58:52.145Z,0.00
2022-11-07T00:59:52.387Z,0.00
2022-11-07T01:00:52.607Z,0.00
2022-11-07T01:01:52.893Z,0.00
2022-11-07T01:02:53.260Z,0.00
2022-11-07T01:03:53.252Z,0.00
2022-11-07T01:04:53.477Z,0.00
2022-11-07T01:05:53.727Z,0.00
2022-11-07T01:06:53.937Z,0.00
2022-11-07T01:07:54.147Z,0.00
2022-11-07T01:09:01.373Z,0.00
2022-11-07T01:09:54.537Z,0.00
2022-11-07T01:10:56.518Z,0.00
2022-11-07T01:11:54.937Z,0.00
2022-11-07T01:12:55.155Z,0.00
2022-11-07T01:13:55.355Z,0.00
2022-11-07T01:14:55.555Z,0.00
2022-11-07T01:15:55.900Z,0.00
2022-11-07T01:16:55.991Z,0.00
2022-11-07T01:17:56.189Z,0.00
2022-11-07T01:18:56.387Z,0.00
2022-11-07T01:19:56.599Z,0.00
2022-11-07T01:20:56.815Z,0.00
2022-11-07T01:21:57.025Z,0.00
2022-11-07T01:22:57.249Z,0.00
2022-11-07T01:23:57.507Z,0.00
2022-11-07T01:24:57.706Z,0.00
2022-11-07T01:25:57.938Z,0.00
2022-11-07T01:26:58.142Z,0.00
2022-11-07T01:27:58.335Z,0.00
2022-11-07T01:28:58.538Z,0.00
2022-11-07T01:29:58.744Z,0.00
2022-11-07T01:30:58.955Z,0.00
2022-11-07T01:31:59.150Z,0.00
2022-11-07T01:32:59.363Z,0.00
2022-11-07T01:33:59.560Z,0.00
2022-11-07T01:34:59.778Z,0.00
2022-11-07T01:36:03.617Z,0.00
2022-11-07T01:37:01.188Z,0.00
2022-11-07T01:38:00.381Z,0.00
2022-11-07T01:39:00.582Z,0.00
2022-11-07T01:40:00.782Z,0.00
2022-11-07T01:41:00.990Z,0.00
2022-11-07T01:42:01.195Z,0.00
2022-11-07T01:43:01.398Z,0.00
2022-11-07T01:44:01.645Z,0.00
2022-11-07T01:45:01.879Z,0.00
2022-11-07T01:46:02.053Z,0.00
2022-11-07T01:47:02.268Z,0.00
2022-11-07T01:48:02.486Z,0.00
2022-11-07T01:49:02.682Z,0.00
2022-11-07T01:50:02.937Z,0.00
2022-11-07T01:51:03.154Z,0.00
2022-11-07T01:52:03.385Z,0.00
2022-11-07T01:53:03.583Z,0.00
2022-11-07T01:54:03.791Z,0.00
2022-11-07T01:55:04.020Z,0.00
2022-11-07T01:56:04.240Z,0.00
2022-11-07T01:57:04.522Z,0.00
2022-11-07T01:58:04.635Z,0.00
2022-11-07T01:59:04.906Z,0.00
2022-11-07T02:00:05.015Z,0.00
2022-11-07T02:01:05.240Z,0.00
2022-11-07T02:02:05.623Z,0.00
2022-11-07T02:03:05.754Z,0.00
2022-11-07T02:04:05.860Z,0.00
2022-11-07T02:05:06.064Z,0.00
2022-11-07T02:06:06.296Z,0.00
2022-11-07T02:07:06.504Z,0.00
2022-11-07T02:08:06.734Z,0.00
2022-11-07T02:09:06.942Z,0.00
2022-11-07T02:10:07.133Z,0.00
2022-11-07T02:11:07.378Z,0.00
2022-11-07T02:12:07.583Z,0.00
2022-11-07T02:13:07.777Z,0.00
2022-11-07T02:14:08.014Z,0.00
2022-11-07T02:15:08.217Z,0.00
2022-11-07T02:16:08.472Z,0.00
2022-11-07T02:17:08.674Z,0.00
2022-11-07T02:18:08.886Z,0.00
2022-11-07T02:19:09.084Z,0.00
2022-11-07T02:20:09.289Z,0.00
2022-11-07T02:21:09.532Z,0.00
2022-11-07T02:22:09.725Z,0.00
2022-11-07T02:23:09.918Z,0.00
2022-11-07T02:24:10.113Z,0.00
2022-11-07T02:25:10.315Z,0.00
2022-11-07T02:26:10.536Z,0.00
2022-11-07T02:27:10.732Z,0.00
2022-11-07T02:28:10.926Z,0.00
2022-11-07T02:29:11.124Z,0.00
2022-11-07T02:30:11.326Z,0.00
2022-11-07T02:31:11.548Z,0.00
2022-11-07T02:32:11.760Z,0.00
2022-11-07T02:33:12.274Z,0.00
2022-11-07T02:34:12.201Z,0.00
2022-11-07T02:35:12.406Z,0.00
2022-11-07T02:36:12.625Z,0.00
2022-11-07T02:37:12.820Z,0.00
2022-11-07T02:38:13.014Z,0.00
2022-11-07T02:39:13.212Z,0.00
2022-11-07T02:40:13.433Z,0.00
2022-11-07T02:41:13.643Z,0.00
2022-11-07T02:42:13.844Z,0.00
2022-11-07T02:43:14.406Z,0.00
2022-11-07T02:44:14.219Z,0.00
2022-11-07T02:45:14.424Z,0.00
2022-11-07T02:46:14.628Z,0.00
2022-11-07T02:47:14.847Z,0.00
2022-11-07T02:48:15.037Z,0.00
2022-11-07T02:49:15.232Z,0.00
2022-11-07T02:50:15.423Z,0.00
2022-11-07T02:51:15.631Z,0.00
2022-11-07T02:52:15.828Z,0.00
2022-11-07T02:53:16.500Z,0.00
2022-11-07T02:54:16.242Z,0.00
2022-11-07T02:55:16.440Z,0.00
2022-11-07T02:56:16.651Z,0.00
2022-11-07T02:57:16.863Z,0.00
2022-11-07T02:58:17.069Z,0.00
2022-11-07T02:59:17.280Z,0.00
2022-11-07T03:00:17.484Z,0.00
2022-11-07T03:01:17.793Z,0.00
2022-11-07T03:02:18.047Z,0.00
2022-11-07T03:03:18.312Z,0.00
2022-11-07T03:04:18.307Z,0.00
2022-11-07T03:05:18.495Z,0.00
2022-11-07T03:06:18.710Z,0.00
2022-11-07T03:07:18.909Z,0.00
2022-11-07T03:08:19.095Z,0.00
2022-11-07T03:09:19.287Z,0.00
2022-11-07T03:10:19.494Z,0.00
2022-11-07T03:11:19.930Z,0.00
2022-11-07T03:12:19.877Z,0.00
2022-11-07T03:13:20.067Z,0.00
2022-11-07T03:14:20.325Z,0.00
2022-11-07T03:15:20.584Z,0.00
2022-11-07T03:16:20.676Z,0.00
2022-11-07T03:17:20.871Z,0.00
2022-11-07T03:18:21.066Z,0.00
2022-11-07T03:19:21.325Z,0.00
2022-11-07T03:20:21.410Z,0.00
2022-11-07T03:21:21.644Z,0.00
2022-11-07T03:22:21.845Z,0.00
2022-11-07T03:23:22.032Z,0.00
2022-11-07T03:24:22.218Z,0.00
2022-11-07T03:25:22.421Z,0.00
2022-11-07T03:26:22.640Z,0.00
2022-11-07T03:27:22.844Z,0.00
2022-11-07T03:28:23.034Z,0.00
2022-11-07T03:29:23.231Z,0.00
2022-11-07T03:30:23.421Z,0.00
2022-11-07T03:31:23.646Z,0.00
2022-11-07T03:32:23.831Z,0.00
2022-11-07T03:33:24.026Z,0.00
2022-11-07T03:34:24.221Z,0.00
2022-11-07T03:35:24.411Z,0.00
2022-11-07T03:36:24.630Z,0.00
2022-11-07T03:37:24.831Z,0.00
2022-11-07T03:38:25.021Z,0.00
2022-11-07T03:39:26.067Z,0.00
2022-11-07T03:40:25.444Z,0.00
2022-11-07T03:41:25.670Z,0.00
2022-11-07T03:42:25.875Z,0.00
2022-11-07T03:43:26.064Z,0.00
2022-11-07T03:44:26.256Z,0.00
2022-11-07T03:45:26.455Z,0.00
2022-11-07T03:46:26.660Z,0.00
2022-11-07T03:47:26.850Z,0.00
2022-11-07T03:48:27.058Z,0.00
2022-11-07T03:49:27.250Z,0.00
2022-11-07T03:50:27.455Z,0.00
2022-11-07T03:51:27.668Z,0.00
2022-11-07T03:52:27.876Z,0.00
2022-11-07T03:53:28.488Z,0.00
2022-11-07T03:54:28.322Z,0.00
2022-11-07T03:55:28.528Z,0.00
2022-11-07T03:56:28.760Z,0.00
2022-11-07T03:57:28.959Z,0.00
2022-11-07T03:58:29.138Z,0.00
2022-11-07T03:59:29.344Z,0.00
2022-11-07T04:00:29.533Z,0.00
2022-11-07T04:01:29.850Z,0.00
2022-11-07T04:02:29.970Z,0.00
2022-11-07T04:03:30.134Z,0.00
2022-11-07T04:04:30.339Z,0.00
2022-11-07T04:05:30.518Z,0.00
2022-11-07T04:06:30.742Z,0.00
2022-11-07T04:07:30.936Z,0.00
2022-11-07T04:08:31.636Z,0.00
2022-11-07T04:09:31.295Z,0.00
2022-11-07T04:10:31.488Z,0.00
2022-11-07T04:11:31.699Z,0.00
2022-11-07T04:12:31.912Z,0.00
2022-11-07T04:13:32.107Z,0.00
2022-11-07T04:14:32.301Z,0.00
2022-11-07T04:15:32.516Z,0.00
2022-11-07T04:16:32.739Z,0.00
2022-11-07T04:17:32.939Z,0.00
2022-11-07T04:18:33.131Z,0.00
2022-11-07T04:19:33.327Z,0.00
2022-11-07T04:20:33.563Z,0.00
2022-11-07T04:21:33.798Z,0.00
2022-11-07T04:22:33.984Z,0.00
2022-11-07T04:23:34.194Z,0.00
2022-11-07T04:24:34.391Z,0.00
2022-11-07T04:25:34.590Z,0.00
2022-11-07T04:26:34.815Z,0.00
2022-11-07T04:27:35.000Z,0.00
2022-11-07T04:28:35.200Z,0.00
2022-11-07T04:29:35.394Z,0.00
2022-11-07T04:30:35.579Z,0.00
2022-11-07T04:31:35.794Z,0.00
2022-11-07T04:32:35.987Z,0.00
2022-11-07T04:33:36.179Z,0.00
2022-11-07T04:34:36.368Z,0.00
2022-11-07T04:35:36.578Z,0.00
2022-11-07T04:36:36.798Z,0.00
2022-11-07T04:37:36.977Z,0.00
2022-11-07T04:38:37.172Z,0.00
2022-11-07T04:39:37.367Z,0.00
2022-11-07T04:40:37.570Z,0.00
2022-11-07T04:41:37.786Z,0.00
2022-11-07T04:42:37.980Z,0.00
2022-11-07T04:43:38.184Z,0.00
2022-11-07T04:44:38.388Z,0.00
2022-11-07T04:45:38.587Z,0.00
2022-11-07T04:46:38.799Z,0.00
2022-11-07T04:47:40.576Z,0.00
2022-11-07T04:48:39.148Z,0.00
2022-11-07T04:49:39.343Z,0.00
2022-11-07T04:50:39.534Z,0.00
2022-11-07T04:51:39.752Z,0.00
2022-11-07T04:52:39.939Z,0.00
2022-11-07T04:53:40.122Z,0.00
2022-11-07T04:54:40.312Z,0.00
2022-11-07T04:55:40.502Z,0.00
2022-11-07T04:56:40.718Z,0.00
2022-11-07T04:57:40.911Z,0.00
2022-11-07T04:58:41.099Z,0.00
2022-11-07T04:59:41.293Z,0.00
2022-11-07T05:00:41.510Z,0.00
2022-11-07T05:01:41.852Z,0.00
2022-11-07T05:02:42.070Z,0.00
2022-11-07T05:03:42.444Z,0.00
2022-11-07T05:04:42.336Z,0.00
2022-11-07T05:05:42.574Z,0.00
2022-11-07T05:06:42.822Z,0.00
2022-11-07T05:07:42.933Z,0.00
2022-11-07T05:08:43.135Z,0.00
2022-11-07T05:09:43.327Z,0.00
2022-11-07T05:10:43.517Z,0.00
2022-11-07T05:11:43.728Z,0.00
2022-11-07T05:12:43.938Z,0.00
2022-11-07T05:13:44.142Z,0.00
2022-11-07T05:14:44.344Z,0.00
2022-11-07T05:15:44.539Z,0.00
2022-11-07T05:16:44.758Z,0.00
2022-11-07T05:17:44.947Z,0.00
2022-11-07T05:18:45.137Z,0.00
2022-11-07T05:19:45.326Z,0.00
2022-11-07T05:20:45.518Z,0.00
2022-11-07T05:21:45.725Z,0.00
2022-11-07T05:22:45.915Z,0.00
2022-11-07T05:23:46.106Z,0.00
2022-11-07T05:24:46.283Z,0.00
2022-11-07T05:25:46.472Z,0.00
2022-11-07T05:26:46.684Z,0.00
2022-11-07T05:27:46.896Z,0.00
2022-11-07T05:28:47.091Z,0.00
2022-11-07T05:29:47.285Z,0.00
2022-11-07T05:30:47.463Z,0.00
2022-11-07T05:31:47.693Z,0.00
2022-11-07T05:32:47.877Z,0.00
2022-11-07T05:33:48.067Z,0.00
2022-11-07T05:34:48.262Z,0.00
2022-11-07T05:35:48.453Z,0.00
2022-11-07T05:36:48.663Z,0.00
2022-11-07T05:37:48.866Z,0.00
2022-11-07T05:38:49.043Z,0.00
2022-11-07T05:39:53.940Z,0.00
2022-11-07T05:40:50.371Z,0.00
2022-11-07T05:41:49.586Z,0.00
2022-11-07T05:42:49.783Z,0.00
2022-11-07T05:43:49.999Z,0.00
2022-11-07T05:44:50.243Z,0.00
2022-11-07T05:45:50.330Z,0.00
2022-11-07T05:46:50.580Z,0.00
2022-11-07T05:47:50.787Z,4.00
2022-11-07T05:48:50.995Z,4.00
2022-11-07T05:49:51.206Z,4.00
2022-11-07T05:50:51.403Z,0.00
2022-11-07T05:51:51.650Z,4.00
2022-11-07T05:52:51.903Z,4.00
2022-11-07T05:53:51.998Z,4.00
2022-11-07T05:54:52.199Z,4.00
2022-11-07T05:55:52.419Z,8.00
2022-11-07T05:56:52.626Z,8.00
2022-11-07T05:57:52.814Z,8.00
2022-11-07T05:58:53.003Z,12.00
2022-11-07T05:59:53.198Z,12.00
2022-11-07T06:00:53.398Z,16.00
2022-11-07T06:01:53.730Z,16.00
2022-11-07T06:02:53.865Z,20.00
2022-11-07T06:03:53.969Z,20.00
2022-11-07T06:04:54.162Z,24.00
2022-11-07T06:05:54.340Z,24.00
2022-11-07T06:06:54.585Z,32.00
2022-11-07T06:07:54.661Z,32.00
2022-11-07T06:08:54.854Z,32.00
2022-11-07T06:09:55.055Z,32.00
2022-11-07T06:10:55.252Z,36.00
2022-11-07T06:11:55.451Z,40.00
2022-11-07T06:12:56.235Z,44.00
2022-11-07T06:13:55.874Z,52.00
2022-11-07T06:14:56.066Z,52.00
2022-11-07T06:15:56.281Z,56.00
2022-11-07T06:16:56.490Z,60.00
2022-11-07T06:17:56.683Z,68.00
2022-11-07T06:18:56.871Z,76.00
2022-11-07T06:19:57.056Z,84.00
2022-11-07T06:20:57.269Z,84.00
2022-11-07T06:21:57.513Z,92.00
2022-11-07T06:22:57.681Z,108.00
2022-11-07T06:23:57.877Z,124.00
2022-11-07T06:24:58.062Z,152.00
2022-11-07T06:25:58.272Z,176.00
2022-11-07T06:26:58.467Z,192.00
2022-11-07T06:27:58.665Z,208.00
2022-11-07T06:28:58.852Z,216.00
2022-11-07T06:29:59.081Z,228.00
2022-11-07T06:30:59.267Z,232.00
2022-11-07T06:31:59.481Z,248.00
2022-11-07T06:32:59.684Z,268.00
2022-11-07T06:33:59.896Z,292.00
2022-11-07T06:35:00.097Z,304.00
2022-11-07T06:36:00.283Z,300.00
2022-11-07T06:37:03.370Z,320.00
2022-11-07T06:38:00.720Z,332.00
2022-11-07T06:39:00.906Z,332.00
2022-11-07T06:40:01.096Z,356.00
2022-11-07T06:41:01.289Z,368.00
2022-11-07T06:42:01.507Z,388.00
2022-11-07T06:43:01.701Z,424.00
2022-11-07T06:44:01.903Z,436.00
2022-11-07T06:45:02.162Z,476.00
2022-11-07T06:46:02.317Z,524.00
2022-11-07T06:47:02.643Z,596.00
2022-11-07T06:48:02.716Z,588.00
2022-11-07T06:49:02.953Z,600.00
2022-11-07T06:50:03.145Z,624.00
2022-11-07T06:51:03.330Z,668.00
2022-11-07T06:52:03.538Z,640.00
2022-11-07T06:53:03.723Z,668.00
2022-11-07T06:54:03.923Z,708.00
2022-11-07T06:55:04.126Z,924.00
2022-11-07T06:56:04.318Z,1084.00
2022-11-07T06:57:04.524Z,1108.00
2022-11-07T06:58:04.724Z,1112.00
2022-11-07T06:59:04.936Z,1140.00
2022-11-07T07:00:05.135Z,1188.00
2022-11-07T07:01:05.447Z,1204.00
2022-11-07T07:02:05.631Z,1108.00
2022-11-07T07:03:05.895Z,1112.00
2022-11-07T07:04:06.034Z,1144.00
2022-11-07T07:05:06.222Z,1168.00
2022-11-07T07:06:06.415Z,1172.00
2022-11-07T07:07:06.642Z,1156.00
2022-11-07T07:08:06.815Z,1212.00
2022-11-07T07:09:07.000Z,1288.00
2022-11-07T07:10:07.182Z,1256.00
2022-11-07T07:11:07.374Z,1316.00
2022-11-07T07:12:07.579Z,1416.00
2022-11-07T07:13:07.789Z,1616.00
2022-11-07T07:14:11.602Z,1468.00
2022-11-07T07:15:08.199Z,1804.00
2022-11-07T07:16:08.381Z,2440.00
2022-11-07T07:17:08.595Z,2672.00
2022-11-07T07:18:08.849Z,2792.00
2022-11-07T07:19:08.929Z,3012.00
2022-11-07T07:20:09.118Z,4480.00
2022-11-07T07:21:09.300Z,2708.00
2022-11-07T07:22:09.501Z,2848.00
2022-11-07T07:23:09.686Z,2968.00
2022-11-07T07:24:09.871Z,2832.00
2022-11-07T07:25:10.062Z,2912.00
2022-11-07T07:26:10.263Z,2712.00
2022-11-07T07:27:10.469Z,2684.00
2022-11-07T07:28:10.645Z,2868.00
2022-11-07T07:29:10.826Z,3000.00
2022-11-07T07:30:11.006Z,2700.00
2022-11-07T07:31:11.196Z,2832.00
2022-11-07T07:32:11.427Z,2620.00
2022-11-07T07:33:11.497Z,2532.00
2022-11-07T07:34:11.676Z,2524.00
2022-11-07T07:35:11.867Z,2560.00
2022-11-07T07:36:16.490Z,2488.00
2022-11-07T07:37:13.196Z,2504.00
2022-11-07T07:38:12.365Z,2296.00
2022-11-07T07:39:12.542Z,2224.00
2022-11-07T07:40:12.724Z,2196.00
2022-11-07T07:41:12.903Z,2188.00
2022-11-07T07:42:13.093Z,2428.00
2022-11-07T07:43:13.611Z,2700.00
2022-11-07T07:44:13.493Z,2716.00
2022-11-07T07:45:13.687Z,2448.00
2022-11-07T07:46:13.875Z,2712.00
2022-11-07T07:47:14.086Z,3196.00
2022-11-07T07:48:14.274Z,4076.00
2022-11-07T07:49:14.456Z,4492.00
2022-11-07T07:50:14.644Z,3884.00
2022-11-07T07:51:14.837Z,4728.00
2022-11-07T07:52:15.022Z,3028.00
2022-11-07T07:53:15.428Z,3460.00
2022-11-07T07:54:15.391Z,3208.00
2022-11-07T07:55:15.573Z,11772.00
2022-11-07T07:56:15.755Z,11740.00
2022-11-07T07:57:15.954Z,12012.00
2022-11-07T07:58:16.155Z,12512.00
2022-11-07T07:59:16.336Z,13440.00
2022-11-07T08:00:16.500Z,13920.00
2022-11-07T08:01:16.707Z,14880.00
2022-11-07T08:02:16.921Z,14528.00
2022-11-07T08:03:17.428Z,14944.00
2022-11-07T08:04:17.349Z,14496.00
2022-11-07T08:05:17.362Z,14784.00
2022-11-07T08:06:17.506Z,14912.00
2022-11-07T08:07:17.681Z,15168.00
2022-11-07T08:08:17.874Z,15232.00
2022-11-07T08:09:18.028Z,15232.00
2022-11-07T08:11:19.303Z,15264.00
2022-11-07T08:12:18.444Z,15744.00
2022-11-07T08:13:18.887Z,16128.00
2022-11-07T08:14:18.753Z,13216.00
2022-11-07T08:15:18.900Z,15360.00
2022-11-07T08:16:19.068Z,16160.00
2022-11-07T08:17:19.206Z,15616.00
2022-11-07T08:18:19.462Z,13120.00
2022-11-07T08:19:19.491Z,12896.00
2022-11-07T08:20:19.651Z,13024.00
2022-11-07T08:21:19.778Z,17184.00
2022-11-07T08:22:19.923Z,16896.00
2022-11-07T08:23:20.404Z,18144.00
2022-11-07T08:24:20.206Z,16352.00
2022-11-07T08:25:20.351Z,15712.00
2022-11-07T08:26:20.478Z,16736.00
2022-11-07T08:27:20.605Z,18272.00
2022-11-07T08:28:20.745Z,17376.00
2022-11-07T08:29:20.885Z,20320.00
2022-11-07T08:30:21.009Z,20224.00
2022-11-07T08:31:21.137Z,20416.00
2022-11-07T08:32:21.260Z,20320.00
2022-11-07T08:33:21.454Z,20640.00
2022-11-07T08:34:21.446Z,20640.00
2022-11-07T08:35:21.566Z,19968.00
2022-11-07T08:36:21.680Z,20192.00
2022-11-07T08:37:21.795Z,21376.00
2022-11-07T08:38:21.910Z,20960.00
2022-11-07T08:39:22.021Z,18112.00
2022-11-07T08:40:22.143Z,21888.00
2022-11-07T08:41:22.710Z,22720.00
2022-11-07T08:42:22.330Z,24672.00
2022-11-07T08:43:22.454Z,27456.00
2022-11-07T08:44:22.559Z,27040.00
2022-11-07T08:45:22.659Z,15104.00
2022-11-07T08:46:22.757Z,7864.00
2022-11-07T08:47:22.886Z,5880.00
2022-11-07T08:48:23.016Z,4972.00
2022-11-07T08:49:23.106Z,4356.00
2022-11-07T08:50:23.208Z,4100.00
2022-11-07T08:51:23.323Z,4088.00
2022-11-07T08:52:23.429Z,4412.00
2022-11-07T08:53:23.567Z,5136.00
2022-11-07T08:54:23.675Z,6452.00
2022-11-07T08:55:23.804Z,6852.00
2022-11-07T08:56:23.940Z,6736.00
2022-11-07T08:57:24.081Z,5916.00
2022-11-07T08:58:29.726Z,6532.00
2022-11-07T08:59:25.317Z,7704.00
2022-11-07T09:00:24.494Z,16416.00
2022-11-07T09:01:24.788Z,11924.00
2022-11-07T09:04:25.971Z,11876.00
2022-11-07T09:05:25.094Z,9420.00
2022-11-07T09:06:25.224Z,8232.00
2022-11-07T09:07:25.364Z,7508.00
2022-11-07T09:08:25.507Z,7604.00
2022-11-07T09:09:25.665Z,8248.00
2022-11-07T09:10:25.803Z,9348.00
2022-11-07T09:11:25.942Z,9384.00
2022-11-07T09:12:26.091Z,14848.00
2022-11-07T09:13:26.222Z,14880.00
2022-11-07T09:14:26.368Z,15232.00
2022-11-07T09:15:26.534Z,33984.00
2022-11-07T09:16:26.676Z,31328.00
2022-11-07T09:17:26.824Z,14304.00
2022-11-07T09:18:26.989Z,16320.00
2022-11-07T09:19:27.135Z,27616.00
2022-11-07T09:20:27.271Z,40608.00
2022-11-07T09:21:27.401Z,12896.00
2022-11-07T09:22:27.531Z,11956.00
2022-11-07T09:23:27.720Z,11428.00
2022-11-07T09:24:27.783Z,9980.00
2022-11-07T09:25:27.914Z,9952.00
2022-11-07T09:26:28.045Z,11924.00
2022-11-07T09:27:28.173Z,20704.00
2022-11-07T09:28:28.294Z,32864.00
2022-11-07T09:29:28.448Z,31872.00
2022-11-07T09:30:28.572Z,32064.00
2022-11-07T09:31:28.701Z,31520.00
2022-11-07T09:32:44.641Z,17376.00
2022-11-07T09:33:29.912Z,34208.00
2022-11-07T09:34:29.032Z,34752.00
2022-11-07T09:35:29.150Z,36384.00
2022-11-07T09:36:29.258Z,34336.00
2022-11-07T09:37:29.360Z,34240.00
2022-11-07T09:38:29.475Z,39712.00
2022-11-07T09:39:29.591Z,39040.00
2022-11-07T09:40:29.692Z,39872.00
2022-11-07T09:41:29.793Z,33408.00
2022-11-07T09:42:29.884Z,39456.00
2022-11-07T09:43:29.972Z,38016.00
2022-11-07T09:44:33.282Z,22912.00
2022-11-07T09:45:31.146Z,34336.00
2022-11-07T09:46:30.230Z,31008.00
2022-11-07T09:47:30.344Z,36416.00
2022-11-07T09:48:30.422Z,36192.00
2022-11-07T09:49:30.528Z,34624.00
2022-11-07T09:50:30.664Z,34368.00
2022-11-07T09:51:30.666Z,33504.00
2022-11-07T09:52:30.750Z,33472.00
2022-11-07T09:53:30.831Z,34272.00
2022-11-07T09:54:31.031Z,33152.00
2022-11-07T09:55:31.001Z,32864.00
2022-11-07T09:56:31.093Z,34080.00
2022-11-07T09:57:31.173Z,34784.00
2022-11-07T09:58:31.303Z,34976.00
2022-11-07T09:59:31.289Z,34080.00
2022-11-07T10:00:31.382Z,32992.00
2022-11-07T10:01:31.606Z,32640.00
2022-11-07T10:02:31.635Z,32704.00
2022-11-07T10:03:31.562Z,33216.00
2022-11-07T10:04:31.653Z,33568.00
2022-11-07T10:05:31.759Z,33056.00
2022-11-07T10:06:31.832Z,32512.00
2022-11-07T10:07:31.943Z,31520.00
2022-11-07T10:08:32.030Z,30528.00
2022-11-07T10:09:32.124Z,30016.00
2022-11-07T10:10:32.197Z,29696.00
2022-11-07T10:11:32.273Z,30432.00
2022-11-07T10:12:32.342Z,28864.00
2022-11-07T10:13:32.432Z,29568.00
2022-11-07T10:14:32.523Z,28992.00
2022-11-07T10:15:32.597Z,28672.00
2022-11-07T10:16:32.681Z,28832.00
2022-11-07T10:17:32.755Z,30208.00
2022-11-07T10:18:32.824Z,30464.00
2022-11-07T10:19:32.912Z,31680.00
2022-11-07T10:20:32.973Z,32544.00
2022-11-07T10:21:38.187Z,34336.00
2022-11-07T10:22:34.067Z,32960.00
2022-11-07T10:23:33.168Z,32512.00
2022-11-07T10:24:33.143Z,32512.00
2022-11-07T10:25:33.225Z,31360.00
2022-11-07T10:26:33.294Z,32128.00
2022-11-07T10:27:33.356Z,32672.00
2022-11-07T10:28:33.414Z,33952.00
2022-11-07T10:29:33.494Z,34624.00
2022-11-07T10:30:33.543Z,34592.00
2022-11-07T10:31:33.612Z,34112.00
2022-11-07T10:32:33.677Z,32800.00
2022-11-07T10:33:33.742Z,31424.00
2022-11-07T10:34:33.808Z,29792.00
2022-11-07T10:35:33.883Z,30368.00
2022-11-07T10:36:33.950Z,30848.00
2022-11-07T10:37:34.014Z,34496.00
2022-11-07T10:38:34.076Z,32832.00
2022-11-07T10:39:34.154Z,31872.00
2022-11-07T10:40:34.215Z,34688.00
2022-11-07T10:41:34.297Z,36864.00
2022-11-07T10:42:34.357Z,37632.00
2022-11-07T10:43:34.424Z,36192.00
2022-11-07T10:44:34.501Z,40224.00
2022-11-07T10:45:34.573Z,38112.00
2022-11-07T10:46:34.673Z,35872.00
2022-11-07T10:47:34.762Z,34528.00
2022-11-07T10:48:34.859Z,33664.00
2022-11-07T10:49:34.928Z,29088.00
2022-11-07T10:50:34.990Z,27136.00
2022-11-07T10:51:35.078Z,32480.00
2022-11-07T10:52:35.408Z,26304.00
2022-11-07T10:53:35.252Z,22592.00
2022-11-07T10:54:35.330Z,20256.00
2022-11-07T10:55:35.406Z,20768.00
2022-11-07T10:56:35.479Z,22816.00
2022-11-07T10:57:35.554Z,26048.00
2022-11-07T10:58:35.632Z,28544.00
2022-11-07T10:59:36.642Z,28256.00
2022-11-07T11:00:35.822Z,26688.00
2022-11-07T11:01:35.890Z,26464.00
2022-11-07T11:02:35.893Z,28832.00
2022-11-07T11:03:44.380Z,29504.00
2022-11-07T11:04:37.017Z,32416.00
2022-11-07T11:05:36.105Z,33184.00
2022-11-07T11:06:36.192Z,31872.00
2022-11-07T11:07:36.274Z,31072.00
2022-11-07T11:08:36.362Z,32416.00
2022-11-07T11:09:36.454Z,32448.00
2022-11-07T11:10:36.545Z,31552.00
2022-11-07T11:11:36.635Z,31584.00
2022-11-07T11:12:36.764Z,33056.00
2022-11-07T11:13:36.821Z,35072.00
2022-11-07T11:14:36.905Z,32032.00
2022-11-07T11:15:37.009Z,23840.00
2022-11-07T11:16:37.080Z,25984.00
2022-11-07T11:17:37.141Z,30976.00
2022-11-07T11:18:37.308Z,31552.00
2022-11-07T11:19:37.284Z,22880.00
2022-11-07T11:20:37.358Z,19552.00
2022-11-07T11:21:37.426Z,16992.00
2022-11-07T11:22:37.505Z,17408.00
2022-11-07T11:23:37.600Z,15456.00
2022-11-07T11:24:37.691Z,17216.00
2022-11-07T11:25:37.776Z,14368.00
2022-11-07T11:26:37.864Z,14100.00
2022-11-07T11:27:37.970Z,21152.00
2022-11-07T11:28:38.054Z,22688.00
2022-11-07T11:29:39.610Z,24352.00
2022-11-07T11:30:38.276Z,20320.00
2022-11-07T11:31:38.252Z,12820.00
2022-11-07T11:32:38.327Z,14496.00
2022-11-07T11:33:38.426Z,14912.00
2022-11-07T11:34:38.513Z,12532.00
2022-11-07T11:35:41.987Z,21024.00
2022-11-07T11:36:38.707Z,22112.00
2022-11-07T11:37:38.785Z,22592.00
2022-11-07T11:38:38.865Z,23136.00
2022-11-07T11:39:38.956Z,23264.00
2022-11-07T11:40:39.055Z,30304.00
2022-11-07T11:41:39.156Z,29088.00
2022-11-07T11:42:39.248Z,28608.00
2022-11-07T11:43:39.325Z,29856.00
2022-11-07T11:44:39.406Z,28096.00
2022-11-07T11:45:39.507Z,29376.00
2022-11-07T11:46:39.593Z,32896.00
2022-11-07T11:47:39.674Z,29568.00
2022-11-07T11:48:39.766Z,30304.00
2022-11-07T11:49:39.845Z,29568.00
2022-11-07T11:50:39.946Z,25856.00
2022-11-07T11:51:40.026Z,23616.00
2022-11-07T11:52:40.086Z,25568.00
2022-11-07T11:53:40.174Z,23680.00
2022-11-07T11:54:40.261Z,25472.00
2022-11-07T11:55:40.346Z,15584.00
2022-11-07T11:56:40.415Z,30592.00
2022-11-07T11:57:40.481Z,29184.00
2022-11-07T11:58:40.557Z,24224.00
2022-11-07T11:59:40.628Z,20768.00
2022-11-07T12:00:40.728Z,9544.00
2022-11-07T12:01:40.796Z,14560.00
2022-11-07T12:02:40.921Z,11052.00
2022-11-07T12:03:40.986Z,14336.00
2022-11-07T12:04:41.094Z,9240.00
2022-11-07T12:05:41.201Z,8768.00
2022-11-07T12:06:41.608Z,6016.00
2022-11-07T12:07:41.356Z,6972.00
2022-11-07T12:08:41.463Z,10472.00
2022-11-07T12:09:41.551Z,6980.00
2022-11-07T12:10:41.640Z,25408.00
2022-11-07T12:11:41.764Z,16864.00
2022-11-07T12:12:41.851Z,13600.00
2022-11-07T12:13:41.944Z,15968.00
2022-11-07T12:14:42.031Z,12996.00
2022-11-07T12:15:42.152Z,16928.00
2022-11-07T12:16:42.268Z,13396.00
2022-11-07T12:17:42.371Z,15488.00
2022-11-07T12:18:42.489Z,16608.00
2022-11-07T12:19:42.583Z,9420.00
2022-11-07T12:20:42.709Z,7776.00
2022-11-07T12:21:48.250Z,7168.00
2022-11-07T12:22:43.871Z,7552.00
2022-11-07T12:23:42.976Z,7000.00
2022-11-07T12:24:43.075Z,8280.00
2022-11-07T12:25:43.198Z,11388.00
2022-11-07T12:26:43.317Z,15456.00
2022-11-07T12:27:43.420Z,18976.00
2022-11-07T12:28:43.536Z,16512.00
2022-11-07T12:29:43.631Z,20928.00
2022-11-07T12:30:43.751Z,21120.00
2022-11-07T12:31:43.861Z,17184.00
2022-11-07T12:32:43.957Z,16576.00
2022-11-07T12:33:44.062Z,15456.00
2022-11-07T12:34:44.172Z,18496.00
2022-11-07T12:35:44.298Z,23488.00
2022-11-07T12:36:44.392Z,23840.00
2022-11-07T12:37:44.510Z,23456.00
2022-11-07T12:38:44.606Z,22752.00